Time;durP1;ratioP1;P1;durP2;ratioP2;P2;SDS_P1;SDS_P2;PMS_P1;PMS_P2;Temp;Humidity;BMP_temperature;BMP_pressure;BME280_temperature;BME280_humidity;BME280_pressure;Samples;Min_cycle;Max_cycle;Signal;HPM_P1;HPM_P2
2021/07/29 00:01:08;;;;;;;;;;;;;;;19.01;62.22;100511.63;5017079;28;1651;-74
2021/07/29 00:03:33;;;;;;;;;;;;;;;18.89;62.15;100517.47;5015870;28;1918;-74
2021/07/29 00:05:58;;;;;;;;;;;;;;;18.91;61.67;100497.41;5017216;28;867;-73
2021/07/29 00:08:23;;;;;;;;;;;;;;;19.03;62.24;100504.22;5017315;28;783;-73
2021/07/29 00:10:48;;;;;;;;;;;;;;;18.97;62.05;100502.19;5015815;28;1505;-74
2021/07/29 00:13:13;;;;;;;;;;;;;;;19.06;62.75;100503.03;5017123;28;866;-74
2021/07/29 00:15:38;;;;;;;;;;;;;;;18.95;63.04;100536.59;5017032;28;1125;-73
2021/07/29 00:20:33;;;;;;;;;;;;;;;18.60;62.80;100499.78;5016914;28;1747;-74
2021/07/29 00:22:58;;;;;;;;;;;;;;;18.82;62.04;100503.75;5017217;28;1899;-75
2021/07/29 00:25:23;;;;;;;;;;;;;;;18.74;62.69;100509.13;5017112;28;902;-75
2021/07/29 00:27:48;;;;;;;;;;;;;;;18.45;62.58;100516.69;5015613;28;1323;-74
2021/07/29 00:30:13;;;;;;;;;;;;;;;18.44;63.25;100515.00;5016958;28;780;-73
2021/07/29 00:32:38;;;;;;;;;;;;;;;18.56;62.64;100511.03;5016276;28;998;-72
2021/07/29 00:35:04;;;;;;;;;;;;;;;18.72;62.72;100501.19;5016675;28;1254;-72
2021/07/29 00:37:29;;;;;;;;;;;;;;;18.79;63.64;100501.41;5016468;28;1709;-72
2021/07/29 00:39:54;;;;;;;;;;;;;;;18.66;63.17;100501.81;5016914;28;911;-71
2021/07/29 00:42:19;;;;;;;;;;;;;;;18.57;63.59;100491.97;5017042;28;1941;-73
2021/07/29 00:44:44;;;;;;;;;;;;;;;18.67;62.80;100497.28;5016548;28;859;-73
2021/07/29 00:47:11;;;;;;;;;;;;;;;18.79;62.45;100485.22;5016529;28;1053;-73
2021/07/29 00:49:36;;;;;;;;;;;;;;;19.00;61.73;100488.31;5016852;28;839;-73
2021/07/29 00:52:01;;;;;;;;;;;;;;;18.85;63.16;100468.34;5016661;28;784;-73
2021/07/29 00:54:28;;;;;;;;;;;;;;;18.75;62.95;100481.13;5016654;28;903;-73
2021/07/29 00:56:53;;;;;;;;;;;;;;;18.93;62.59;100476.50;5016117;28;2013;-73
2021/07/29 00:59:18;;;;;;;;;;;;;;;18.97;62.32;100472.47;5016178;28;1356;-73
2021/07/29 01:01:43;;;;;;;;;;;;;;;19.01;62.45;100478.38;5014889;28;1922;-72
2021/07/29 01:04:08;;;;;;;;;;;;;;;18.85;63.30;100473.75;5016113;28;842;-73
2021/07/29 01:06:33;;;;;;;;;;;;;;;18.93;62.67;100467.56;5016513;28;1057;-73
2021/07/29 01:08:58;;;;;;;;;;;;;;;19.00;62.55;100465.88;5016246;28;1005;-73
2021/07/29 01:11:23;;;;;;;;;;;;;;;18.94;63.01;100467.38;5016301;28;839;-73
2021/07/29 01:13:48;;;;;;;;;;;;;;;19.00;62.60;100458.63;5016106;28;1530;-73
2021/07/29 01:16:14;;;;;;;;;;;;;;;19.05;62.45;100463.53;5015976;28;895;-74
2021/07/29 01:18:39;;;;;;;;;;;;;;;19.05;62.24;100464.38;5015878;28;819;-73
2021/07/29 01:21:04;;;;;;;;;;;;;;;19.16;62.42;100459.72;5014430;28;1228;-75
2021/07/29 01:23:29;;;;;;;;;;;;;;;19.21;62.23;100454.63;5014328;28;1959;-75
2021/07/29 01:25:54;;;;;;;;;;;;;;;19.23;62.53;100453.47;5016445;28;930;-75
2021/07/29 01:28:19;;;;;;;;;;;;;;;19.27;62.47;100462.94;5015861;28;902;-75
2021/07/29 01:30:44;;;;;;;;;;;;;;;19.25;63.46;100469.50;5015889;28;915;-75
2021/07/29 01:33:09;;;;;;;;;;;;;;;19.19;63.00;100470.16;5015594;28;1502;-75
2021/07/29 01:35:34;;;;;;;;;;;;;;;19.15;63.06;100474.22;5014110;28;2857;-75
2021/07/29 01:37:59;;;;;;;;;;;;;;;19.21;62.64;100462.72;5015794;28;1057;-75
2021/07/29 01:40:24;;;;;;;;;;;;;;;19.16;63.45;100470.50;5015780;28;899;-75
2021/07/29 01:42:50;;;;;;;;;;;;;;;19.14;63.29;100469.81;5014857;28;1898;-75
2021/07/29 01:45:15;;;;;;;;;;;;;;;19.08;63.18;100472.16;5015614;28;906;-77
2021/07/29 01:47:40;;;;;;;;;;;;;;;19.02;62.93;100477.34;5015417;28;804;-78
2021/07/29 01:50:05;;;;;;;;;;;;;;;18.79;63.84;100514.91;5015030;28;1678;-76
2021/07/29 01:52:30;;;;;;;;;;;;;;;18.52;64.21;100505.09;5015771;28;946;-76
2021/07/29 01:54:55;;;;;;;;;;;;;;;18.45;64.59;100495.94;5015236;28;788;-76
2021/07/29 01:57:22;;;;;;;;;;;;;;;18.22;64.79;100495.63;5015501;28;954;-76
2021/07/29 01:59:47;;;;;;;;;;;;;;;18.38;64.73;100476.84;5015293;28;1678;-77
2021/07/29 02:02:12;;;;;;;;;;;;;;;18.44;63.90;100474.53;5015128;28;1970;-78
2021/07/29 02:04:37;;;;;;;;;;;;;;;18.46;63.49;100477.88;5015032;28;1009;-78
2021/07/29 02:07:02;;;;;;;;;;;;;;;18.27;64.21;100479.78;5015596;28;784;-79
2021/07/29 02:09:27;;;;;;;;;;;;;;;18.31;63.95;100473.06;5015097;28;1801;-75
2021/07/29 02:11:52;;;;;;;;;;;;;;;18.53;63.31;100490.59;5013498;28;1764;-75
2021/07/29 02:14:18;;;;;;;;;;;;;;;18.53;63.58;100489.75;5015169;28;891;-77
2021/07/29 02:16:43;;;;;;;;;;;;;;;18.45;63.81;100481.63;5014356;28;1256;-77
2021/07/29 02:19:08;;;;;;;;;;;;;;;18.59;63.28;100478.34;5014889;28;910;-75
2021/07/29 02:21:33;;;;;;;;;;;;;;;18.77;62.87;100486.38;5014996;28;815;-76
2021/07/29 02:23:58;;;;;;;;;;;;;;;18.87;62.53;100485.22;5014957;28;1890;-76
2021/07/29 02:26:23;;;;;;;;;;;;;;;18.94;62.33;100491.69;5013685;28;1598;-76
2021/07/29 02:28:48;;;;;;;;;;;;;;;18.99;62.23;100480.38;5013569;28;1340;-76
2021/07/29 02:31:14;;;;;;;;;;;;;;;19.02;63.01;100480.91;5013652;28;1523;-76
2021/07/29 02:33:39;;;;;;;;;;;;;;;18.85;64.54;100497.19;5014880;28;850;-76
2021/07/29 02:36:04;;;;;;;;;;;;;;;18.90;63.19;100497.56;5014715;28;792;-77
2021/07/29 02:38:29;;;;;;;;;;;;;;;18.87;63.88;100504.13;5015045;28;940;-76
2021/07/29 02:40:54;;;;;;;;;;;;;;;18.73;64.36;100502.03;5013593;28;1370;-76
2021/07/29 02:43:19;;;;;;;;;;;;;;;18.76;63.84;100506.28;5014879;28;1953;-76
2021/07/29 02:45:44;;;;;;;;;;;;;;;18.67;63.89;100497.28;5014510;28;1707;-76
2021/07/29 02:48:09;;;;;;;;;;;;;;;18.64;64.30;100498.44;5014731;28;1073;-76
2021/07/29 02:50:35;;;;;;;;;;;;;;;18.75;63.85;100497.34;5014521;28;828;-76
2021/07/29 02:53:00;;;;;;;;;;;;;;;18.75;64.01;100488.38;5013372;28;1330;-76
2021/07/29 02:55:25;;;;;;;;;;;;;;;18.83;63.80;100505.47;5017496;28;1017;-75
2021/07/29 02:57:50;;;;;;;;;;;;;;;18.79;64.52;100497.88;5018877;28;954;-75
2021/07/29 03:00:15;;;;;;;;;;;;;;;18.83;63.81;100508.16;5019054;28;1337;-75
2021/07/29 03:02:40;;;;;;;;;;;;;;;18.90;64.35;100497.56;5018338;28;1906;-74
2021/07/29 03:05:05;;;;;;;;;;;;;;;18.91;64.00;100500.13;5018219;28;1672;-74
2021/07/29 03:07:31;;;;;;;;;;;;;;;18.93;64.02;100503.50;5017353;28;1176;-75
2021/07/29 03:09:56;;;;;;;;;;;;;;;18.85;64.14;100503.44;5018795;28;779;-75
2021/07/29 03:12:21;;;;;;;;;;;;;;;18.79;64.78;100506.81;5018205;28;831;-75
2021/07/29 03:14:46;;;;;;;;;;;;;;;18.88;63.96;100505.84;5018144;28;1014;-75
2021/07/29 03:17:12;;;;;;;;;;;;;;;18.96;63.82;100505.88;5018253;28;1077;-74
2021/07/29 03:19:37;;;;;;;;;;;;;;;19.00;64.05;100503.69;5018102;28;966;-74
2021/07/29 03:22:02;;;;;;;;;;;;;;;19.01;63.21;100500.81;5017807;28;1899;-74
2021/07/29 03:24:27;;;;;;;;;;;;;;;18.93;64.18;100511.59;5017997;28;886;-74
2021/07/29 03:26:52;;;;;;;;;;;;;;;18.96;63.77;100516.69;5018208;28;827;-74
2021/07/29 03:29:17;;;;;;;;;;;;;;;19.00;63.78;100522.59;5018174;28;914;-75
2021/07/29 03:31:42;;;;;;;;;;;;;;;19.02;63.90;100523.28;5017938;28;780;-77
2021/07/29 03:34:08;;;;;;;;;;;;;;;18.99;64.20;100518.19;5017903;28;1057;-73
2021/07/29 03:36:33;;;;;;;;;;;;;;;18.98;63.71;100524.63;5018261;28;818;-73
2021/07/29 03:38:58;;;;;;;;;;;;;;;18.93;64.04;100522.41;5017583;28;1757;-74
2021/07/29 03:41:23;;;;;;;;;;;;;;;18.89;64.16;100523.72;5017782;28;835;-74
2021/07/29 03:43:48;;;;;;;;;;;;;;;18.94;63.63;100510.59;5017938;28;1898;-75
2021/07/29 03:46:13;;;;;;;;;;;;;;;18.97;63.68;100509.44;5016700;28;1431;-74
2021/07/29 03:48:38;;;;;;;;;;;;;;;18.97;64.22;100514.84;5017385;28;1697;-75
2021/07/29 03:51:04;;;;;;;;;;;;;;;18.91;63.50;100516.31;5016069;28;1283;-75
2021/07/29 03:53:29;;;;;;;;;;;;;;;18.92;63.81;100514.47;5017606;28;874;-75
2021/07/29 03:55:54;;;;;;;;;;;;;;;18.92;63.91;100507.22;5017244;28;1712;-76
2021/07/29 03:58:19;;;;;;;;;;;;;;;18.91;64.48;100499.25;5016243;28;1325;-76
2021/07/29 04:00:44;;;;;;;;;;;;;;;18.89;63.72;100518.31;5017242;28;1133;-75
2021/07/29 04:03:09;;;;;;;;;;;;;;;18.91;63.83;100521.72;5016004;28;1902;-75
2021/07/29 04:05:34;;;;;;;;;;;;;;;18.84;63.33;100526.06;5016651;28;808;-74
2021/07/29 04:07:59;;;;;;;;;;;;;;;18.86;64.31;100524.03;5016950;28;1106;-75
2021/07/29 04:10:24;;;;;;;;;;;;;;;18.85;63.33;100527.75;5017425;28;1005;-74
2021/07/29 04:12:49;;;;;;;;;;;;;;;18.91;63.29;100526.28;5017132;28;1750;-73
2021/07/29 04:15:14;;;;;;;;;;;;;;;18.94;63.51;100531.34;5017062;28;1549;-75
2021/07/29 04:17:40;;;;;;;;;;;;;;;18.91;64.20;100535.22;5017523;28;1065;-76
2021/07/29 04:20:05;;;;;;;;;;;;;;;18.89;64.17;100531.81;5015709;28;1675;-74
2021/07/29 04:22:30;;;;;;;;;;;;;;;18.89;63.37;100539.94;5016778;28;1882;-75
2021/07/29 04:24:58;;;;;;;;;;;;;;;18.86;64.27;100534.84;5017349;28;993;-75
2021/07/29 04:27:23;;;;;;;;;;;;;;;18.80;63.96;100540.91;5016880;28;808;-74
2021/07/29 04:29:48;;;;;;;;;;;;;;;18.77;64.03;100530.41;5016944;28;858;-75
2021/07/29 04:32:15;;;;;;;;;;;;;;;18.66;64.18;100538.78;5015326;28;1611;-74
2021/07/29 04:34:40;;;;;;;;;;;;;;;18.72;63.81;100539.00;5016325;28;1776;-75
2021/07/29 04:37:05;;;;;;;;;;;;;;;18.84;63.85;100536.00;5016158;28;1319;-74
2021/07/29 04:39:30;;;;;;;;;;;;;;;18.86;63.41;100542.09;5016107;28;1232;-74
2021/07/29 04:41:55;;;;;;;;;;;;;;;18.83;64.12;100542.41;5016218;28;1950;-75
2021/07/29 04:44:20;;;;;;;;;;;;;;;18.84;64.01;100536.00;5016206;28;1478;-75
2021/07/29 04:46:45;;;;;;;;;;;;;;;18.88;64.46;100535.53;5047931;28;1317;-76
2021/07/29 04:49:11;;;;;;;;;;;;;;;18.81;63.89;100545.28;5015830;28;1430;-76
2021/07/29 04:51:36;;;;;;;;;;;;;;;18.81;64.83;100541.75;5015268;28;1728;-76
2021/07/29 04:54:01;;;;;;;;;;;;;;;18.91;64.49;100537.91;5016417;28;1041;-75
2021/07/29 04:56:26;;;;;;;;;;;;;;;19.03;65.50;100547.41;5016942;28;1022;-73
2021/07/29 04:58:51;;;;;;;;;;;;;;;19.03;68.10;100542.03;5016712;28;848;-73
2021/07/29 05:01:17;;;;;;;;;;;;;;;18.97;67.61;100542.69;5016128;28;1588;-78
2021/07/29 05:03:42;;;;;;;;;;;;;;;19.01;67.64;100548.59;5017080;28;1902;-76
2021/07/29 05:06:07;;;;;;;;;;;;;;;19.05;67.50;100537.31;5015370;28;1133;-75
2021/07/29 05:08:32;;;;;;;;;;;;;;;18.95;67.43;100542.00;5015174;28;1359;-75
2021/07/29 05:10:57;;;;;;;;;;;;;;;19.03;66.78;100542.03;5015355;28;1428;-73
2021/07/29 05:13:22;;;;;;;;;;;;;;;19.05;66.49;100531.91;5015816;28;1343;-76
2021/07/29 05:15:47;;;;;;;;;;;;;;;18.98;67.13;100543.53;5015317;28;1377;-75
2021/07/29 05:18:12;;;;;;;;;;;;;;;18.82;66.15;100544.25;5015645;28;1798;-70
2021/07/29 05:20:37;;;;;;;;;;;;;;;18.83;66.49;100550.50;5015468;28;1773;-69
2021/07/29 05:23:02;;;;;;;;;;;;;;;18.88;66.71;100554.44;5015462;28;1898;-71
2021/07/29 05:25:27;;;;;;;;;;;;;;;18.78;66.67;100544.75;5015497;28;1515;-70
2021/07/29 05:27:53;;;;;;;;;;;;;;;18.77;67.17;100545.78;5015269;28;1685;-70
2021/07/29 05:30:18;;;;;;;;;;;;;;;18.71;66.80;100547.25;5018921;28;1826;-71
2021/07/29 05:32:43;;;;;;;;;;;;;;;18.77;66.75;100552.03;5016830;28;1369;-71
2021/07/29 05:35:08;;;;;;;;;;;;;;;18.61;66.21;100550.06;5022304;28;1468;-71
2021/07/29 05:37:33;;;;;;;;;;;;;;;18.69;65.85;100549.25;5013961;28;1541;-71
2021/07/29 05:39:58;;;;;;;;;;;;;;;18.73;66.30;100545.25;5014593;28;1523;-71
2021/07/29 05:42:24;;;;;;;;;;;;;;;18.67;66.02;100553.97;5015371;28;1914;-71
2021/07/29 05:44:49;;;;;;;;;;;;;;;18.56;66.54;100548.81;5015616;28;1510;-70
2021/07/29 05:47:14;;;;;;;;;;;;;;;18.60;66.18;100550.22;5013749;28;848;-71
2021/07/29 05:49:39;;;;;;;;;;;;;;;18.84;65.45;100550.34;5013630;28;1369;-71
2021/07/29 05:52:04;;;;;;;;;;;;;;;18.92;65.68;100552.25;5017378;28;1321;-72
2021/07/29 05:54:29;;;;;;;;;;;;;;;18.79;66.03;100551.88;5017559;28;1428;-71
2021/07/29 05:56:55;;;;;;;;;;;;;;;18.73;65.98;100547.94;5014792;28;1538;-71
2021/07/29 05:59:20;;;;;;;;;;;;;;;18.88;65.77;100553.59;5015271;28;1404;-71
2021/07/29 06:01:45;;;;;;;;;;;;;;;18.84;64.89;100558.44;5014862;28;1372;-71
2021/07/29 06:04:10;;;;;;;;;;;;;;;18.96;64.71;100551.78;5014546;28;1914;-71
2021/07/29 06:06:35;;;;;;;;;;;;;;;18.94;64.32;100561.91;5014678;28;1301;-70
2021/07/29 06:09:01;;;;;;;;;;;;;;;18.86;64.86;100561.84;5014625;28;1443;-71
2021/07/29 06:11:26;;;;;;;;;;;;;;;18.99;63.82;100573.06;5014571;28;1363;-71
2021/07/29 06:13:51;;;;;;;;;;;;;;;18.96;64.37;100572.56;5045835;28;1709;-71
2021/07/29 06:16:18;;;;;;;;;;;;;;;19.04;64.58;100562.63;5014576;28;1343;-71
2021/07/29 06:18:52;;;;;;;;;;;;;;;18.99;64.62;100575.75;5024102;28;2989;-71
2021/07/29 06:21:17;;;;;;;;;;;;;;;18.94;64.75;100561.91;5013301;28;1483;-71
2021/07/29 06:23:43;;;;;;;;;;;;;;;19.07;64.42;100575.81;5014034;28;1911;-71
2021/07/29 06:26:08;;;;;;;;;;;;;;;18.92;64.95;100581.97;5045697;28;1451;-71
2021/07/29 06:28:34;;;;;;;;;;;;;;;19.00;64.68;100580.16;5014319;28;1428;-71
2021/07/29 06:30:59;;;;;;;;;;;;;;;18.89;63.81;100584.97;5049683;28;1705;-71
2021/07/29 06:33:24;;;;;;;;;;;;;;;18.73;64.48;100585.72;5018515;28;1418;-71
2021/07/29 06:35:49;;;;;;;;;;;;;;;18.80;64.50;100592.19;5020344;28;1440;-71
2021/07/29 06:38:14;;;;;;;;;;;;;;;18.91;64.55;100586.53;5020498;28;1420;-71
2021/07/29 06:40:39;;;;;;;;;;;;;;;18.78;64.75;100586.09;5020405;28;1491;-71
2021/07/29 06:43:05;;;;;;;;;;;;;;;18.86;65.21;100586.16;5019796;28;1946;-71
2021/07/29 06:45:30;;;;;;;;;;;;;;;18.85;65.17;100592.53;5020457;28;1399;-71
2021/07/29 06:47:55;;;;;;;;;;;;;;;18.66;65.40;100592.75;5019761;28;1519;-71
2021/07/29 06:50:20;;;;;;;;;;;;;;;18.74;64.29;100590.13;5020763;28;1339;-71
2021/07/29 06:52:45;;;;;;;;;;;;;;;19.00;64.40;100585.56;5021056;28;1441;-72
2021/07/29 06:55:10;;;;;;;;;;;;;;;19.03;64.65;100593.34;5020260;28;1777;-71
2021/07/29 06:57:35;;;;;;;;;;;;;;;19.19;64.02;100595.28;5020326;28;1379;-71
2021/07/29 07:00:00;;;;;;;;;;;;;;;19.35;63.03;100599.91;5020411;28;1236;-71
2021/07/29 07:02:25;;;;;;;;;;;;;;;19.13;63.82;100600.50;5052029;28;1969;-72
2021/07/29 07:04:50;;;;;;;;;;;;;;;19.11;63.48;100599.81;5020210;28;1323;-71
2021/07/29 07:07:16;;;;;;;;;;;;;;;19.10;64.20;100598.94;5019916;28;1778;-71
2021/07/29 07:09:41;;;;;;;;;;;;;;;19.04;63.76;100588.78;5020810;28;1371;-71
2021/07/29 07:12:06;;;;;;;;;;;;;;;19.15;63.41;100598.47;5020742;28;1309;-71
2021/07/29 07:14:31;;;;;;;;;;;;;;;19.17;64.39;100607.28;5034628;28;1250;-71
2021/07/29 07:16:56;;;;;;;;;;;;;;;19.07;64.01;100607.38;5020797;28;1700;-71
2021/07/29 07:19:21;;;;;;;;;;;;;;;19.16;64.30;100610.97;5020553;28;1847;-71
2021/07/29 07:21:46;;;;;;;;;;;;;;;18.96;64.91;100610.34;5020643;28;1289;-71
2021/07/29 07:24:11;;;;;;;;;;;;;;;18.69;65.35;100608.63;5020749;28;1902;-71
2021/07/29 07:26:36;;;;;;;;;;;;;;;18.59;65.51;100618.69;5020617;28;1484;-71
2021/07/29 07:29:03;;;;;;;;;;;;;;;18.72;65.20;100614.56;5020357;28;1737;-71
2021/07/29 07:31:28;;;;;;;;;;;;;;;18.71;65.77;100607.47;5020991;28;2051;-71
2021/07/29 07:33:53;;;;;;;;;;;;;;;18.66;64.87;100619.75;5020237;28;1903;-72
2021/07/29 07:36:20;;;;;;;;;;;;;;;18.67;65.32;100626.84;5052892;28;1908;-72
2021/07/29 07:38:45;;;;;;;;;;;;;;;18.89;64.28;100620.94;5052429;28;1771;-71
2021/07/29 07:41:10;;;;;;;;;;;;;;;18.97;64.56;100622.84;5018083;28;2105;-71
2021/07/29 07:43:35;;;;;;;;;;;;;;;19.01;63.96;100625.06;5017434;28;1953;-71
2021/07/29 07:46:00;;;;;;;;;;;;;;;19.19;63.65;100637.66;5017684;28;2223;-71
2021/07/29 07:48:26;;;;;;;;;;;;;;;19.03;62.89;100644.66;5018000;28;2029;-71
2021/07/29 07:50:52;;;;;;;;;;;;;;;18.80;62.79;100627.31;5017300;28;1935;-72
2021/07/29 07:53:18;;;;;;;;;;;;;;;18.65;61.67;100642.34;5017511;28;1679;-71
2021/07/29 07:55:43;;;;;;;;;;;;;;;18.64;61.29;100636.09;5017083;28;1620;-71
2021/07/29 07:58:08;;;;;;;;;;;;;;;18.65;60.71;100635.09;5016705;28;1728;-72
2021/07/29 08:00:33;;;;;;;;;;;;;;;18.59;60.41;100638.44;5017052;28;1883;-72
2021/07/29 08:02:58;;;;;;;;;;;;;;;18.66;61.20;100630.53;5046445;28;1970;-72
2021/07/29 08:05:23;;;;;;;;;;;;;;;18.66;60.57;100638.63;5016458;28;1331;-71
2021/07/29 08:07:48;;;;;;;;;;;;;;;18.61;60.95;100632.88;5048372;28;1348;-72
2021/07/29 08:10:13;;;;;;;;;;;;;;;18.54;60.85;100635.31;5017188;28;1773;-71
2021/07/29 08:12:38;;;;;;;;;;;;;;;18.56;60.41;100640.56;5016341;28;1367;-71
2021/07/29 08:15:04;;;;;;;;;;;;;;;18.50;60.82;100635.78;5016431;28;1514;-71
2021/07/29 08:17:29;;;;;;;;;;;;;;;18.52;61.14;100640.03;5007408;28;1667;-71
2021/07/29 08:19:54;;;;;;;;;;;;;;;18.55;61.33;100636.16;5016618;28;1708;-72
2021/07/29 08:22:19;;;;;;;;;;;;;;;18.73;61.12;100631.63;5016676;28;1971;-74
2021/07/29 08:24:44;;;;;;;;;;;;;;;19.00;60.31;100633.31;5016637;28;1588;-71
2021/07/29 08:27:10;;;;;;;;;;;;;;;18.99;60.25;100634.31;5016334;28;1410;-69
2021/07/29 08:29:35;;;;;;;;;;;;;;;18.84;59.66;100633.22;5047864;28;1711;-72
2021/07/29 08:32:00;;;;;;;;;;;;;;;18.70;60.10;100638.19;5016694;28;918;-72
2021/07/29 08:34:25;;;;;;;;;;;;;;;18.58;58.51;100643.97;5016034;28;1110;-73
2021/07/29 08:36:50;;;;;;;;;;;;;;;18.48;58.25;100653.97;5015889;28;1439;-72
2021/07/29 08:39:15;;;;;;;;;;;;;;;18.58;57.65;100652.06;5047622;28;1196;-73
2021/07/29 08:41:40;;;;;;;;;;;;;;;18.70;58.48;100642.72;5015719;28;1414;-73
2021/07/29 08:44:06;;;;;;;;;;;;;;;18.64;58.30;100648.75;5031200;28;1886;-72
2021/07/29 08:46:34;;;;;;;;;;;;;;;18.79;58.88;100647.19;5016812;28;847;-72
2021/07/29 08:48:59;;;;;;;;;;;;;;;18.69;58.39;100662.63;5016340;28;1605;-71
2021/07/29 08:51:24;;;;;;;;;;;;;;;18.69;58.88;100649.97;5016360;28;863;-72
2021/07/29 08:53:49;;;;;;;;;;;;;;;18.80;58.42;100654.28;5016089;28;784;-72
2021/07/29 08:56:14;;;;;;;;;;;;;;;18.80;58.25;100658.84;5016274;28;1668;-72
2021/07/29 08:58:39;;;;;;;;;;;;;;;18.68;58.36;100669.03;5016288;28;982;-72
2021/07/29 09:01:05;;;;;;;;;;;;;;;18.68;57.86;100666.31;5015530;28;1164;-72
2021/07/29 09:03:30;;;;;;;;;;;;;;;18.65;57.98;100674.72;5015801;28;1913;-72
2021/07/29 09:05:55;;;;;;;;;;;;;;;18.66;57.72;100658.38;4988973;28;72947;-72
2021/07/29 09:08:21;;;;;;;;;;;;;;;18.92;58.37;100668.38;5033194;28;2832;-71
2021/07/29 09:10:46;;;;;;;;;;;;;;;18.78;57.72;100677.06;5032748;28;2866;-71
2021/07/29 09:13:11;;;;;;;;;;;;;;;18.63;58.03;100676.78;5033827;28;1896;-71
2021/07/29 09:15:36;;;;;;;;;;;;;;;18.67;58.64;100678.97;5031722;28;3163;-70
2021/07/29 09:18:01;;;;;;;;;;;;;;;18.56;57.19;100675.66;5017773;28;2141;-71
2021/07/29 09:20:26;;;;;;;;;;;;;;;18.67;58.54;100687.06;5029125;28;2789;-71
2021/07/29 09:22:53;;;;;;;;;;;;;;;18.59;57.91;100686.16;5027709;28;2762;-71
2021/07/29 09:25:19;;;;;;;;;;;;;;;18.45;57.76;100694.78;5033948;28;2883;-71
2021/07/29 09:27:45;;;;;;;;;;;;;;;18.57;57.54;100685.44;5036019;28;775;-71
2021/07/29 09:30:10;;;;;;;;;;;;;;;18.61;56.92;100687.72;5035852;28;965;-71
2021/07/29 09:32:35;;;;;;;;;;;;;;;18.55;57.48;100691.00;5035397;28;1771;-71
2021/07/29 09:35:00;;;;;;;;;;;;;;;18.64;56.57;100681.97;5034133;28;914;-71
2021/07/29 09:37:25;;;;;;;;;;;;;;;18.55;55.82;100693.69;5035471;28;918;-71
2021/07/29 09:39:50;;;;;;;;;;;;;;;18.61;56.61;100687.72;5035291;28;815;-71
2021/07/29 09:42:15;;;;;;;;;;;;;;;18.60;56.34;100687.88;5035197;28;1898;-71
2021/07/29 09:44:40;;;;;;;;;;;;;;;18.57;55.78;100685.44;5035113;28;775;-71
2021/07/29 09:47:05;;;;;;;;;;;;;;;18.52;55.90;100693.16;5035510;28;819;-71
2021/07/29 09:49:30;;;;;;;;;;;;;;;18.64;56.11;100691.94;5035153;28;997;-71
2021/07/29 09:51:55;;;;;;;;;;;;;;;18.68;56.14;100694.16;5034003;28;2846;-71
2021/07/29 09:54:21;;;;;;;;;;;;;;;18.84;55.91;100698.00;5030722;28;3016;-70
2021/07/29 09:56:46;;;;;;;;;;;;;;;18.81;56.00;100699.16;5027148;28;3544;-70
2021/07/29 09:59:11;;;;;;;;;;;;;;;18.85;56.37;100694.31;5033617;28;3455;-70
2021/07/29 10:01:36;;;;;;;;;;;;;;;18.73;55.46;100696.41;5032831;28;1400;-70
2021/07/29 10:04:01;;;;;;;;;;;;;;;18.66;55.64;100695.31;5031849;28;2333;-70
2021/07/29 10:06:26;;;;;;;;;;;;;;;18.62;54.90;100685.88;5033755;28;1526;-71
2021/07/29 10:08:51;;;;;;;;;;;;;;;18.74;55.49;100692.72;5032967;28;1464;-69
2021/07/29 10:11:16;;;;;;;;;;;;;;;18.82;55.66;100695.47;5032902;28;1367;-69
2021/07/29 10:13:41;;;;;;;;;;;;;;;18.90;55.12;100698.25;5029448;28;2020;-70
2021/07/29 10:16:06;;;;;;;;;;;;;;;18.97;54.65;100693.06;5034529;28;1634;-69
2021/07/29 10:18:31;;;;;;;;;;;;;;;18.90;54.62;100687.44;5034736;28;1897;-68
2021/07/29 10:20:56;;;;;;;;;;;;;;;18.73;51.62;100699.13;5032627;28;1944;-68
2021/07/29 10:23:22;;;;;;;;;;;;;;;18.66;51.29;100684.53;5033721;28;1898;-67
2021/07/29 10:25:47;;;;;;;;;;;;;;;18.81;51.94;100688.38;5032524;28;1620;-67
2021/07/29 10:28:12;;;;;;;;;;;;;;;18.81;52.29;100699.16;5032383;28;1400;-68
2021/07/29 10:30:37;;;;;;;;;;;;;;;18.78;52.71;100701.34;5033279;28;1585;-68
2021/07/29 10:33:02;;;;;;;;;;;;;;;18.80;52.18;100707.44;5033502;28;1347;-68
2021/07/29 10:35:27;;;;;;;;;;;;;;;18.73;51.71;100707.22;5034058;28;1382;-68
2021/07/29 10:37:54;;;;;;;;;;;;;;;18.68;50.84;100710.38;5049660;28;1658;-69
2021/07/29 10:40:19;;;;;;;;;;;;;;;18.71;51.70;100699.25;5033763;28;1581;-69
2021/07/29 10:42:44;;;;;;;;;;;;;;;18.94;53.31;100699.63;5031762;28;1968;-69
2021/07/29 10:45:09;;;;;;;;;;;;;;;18.99;53.71;100704.53;5032681;28;1448;-70
2021/07/29 10:47:34;;;;;;;;;;;;;;;19.00;52.74;100701.69;5034067;28;1609;-69
2021/07/29 10:50:00;;;;;;;;;;;;;;;18.85;51.58;100711.34;5034539;28;1204;-68
2021/07/29 10:52:25;;;;;;;;;;;;;;;18.88;53.03;100721.84;5034242;28;1643;-70
2021/07/29 10:54:52;;;;;;;;;;;;;;;18.88;52.02;100711.03;5034347;28;1767;-69
2021/07/29 10:57:17;;;;;;;;;;;;;;;18.82;52.14;100714.34;5033514;28;1648;-69
2021/07/29 10:59:43;;;;;;;;;;;;;;;18.74;52.06;100719.72;5033640;28;1631;-69
2021/07/29 11:02:14;;;;;;;;;;;;;;;18.72;51.98;100709.06;5032786;28;1965;-68
2021/07/29 11:04:39;;;;;;;;;;;;;;;18.64;51.69;100716.22;5034097;28;1958;-69
2021/07/29 11:07:07;;;;;;;;;;;;;;;18.61;51.18;100713.84;5032442;28;1660;-69
2021/07/29 11:09:33;;;;;;;;;;;;;;;18.67;54.38;100724.88;5034283;28;1875;-69
2021/07/29 11:11:58;;;;;;;;;;;;;;;18.67;53.29;100707.81;5034313;28;1866;-69
2021/07/29 11:14:23;;;;;;;;;;;;;;;18.66;53.23;100725.03;5033559;28;1782;-69
2021/07/29 11:16:48;;;;;;;;;;;;;;;18.60;53.76;100736.44;5035677;28;1934;-69
2021/07/29 11:19:13;;;;;;;;;;;;;;;18.60;53.82;100731.06;5037762;28;1633;-69
2021/07/29 11:21:38;;;;;;;;;;;;;;;18.61;54.35;100724.66;5037674;28;1774;-67
2021/07/29 11:24:03;;;;;;;;;;;;;;;18.65;52.39;100718.78;5036694;28;1890;-68
2021/07/29 11:26:28;;;;;;;;;;;;;;;18.65;52.37;100726.03;5036785;28;1413;-69
2021/07/29 11:28:53;;;;;;;;;;;;;;;18.62;53.07;100715.56;5037114;28;1307;-69
2021/07/29 11:31:18;;;;;;;;;;;;;;;18.60;52.79;100733.75;5037887;28;2046;-68
2021/07/29 11:33:43;;;;;;;;;;;;;;;18.57;52.17;100734.88;5036854;28;1467;-69
2021/07/29 11:36:09;;;;;;;;;;;;;;;18.54;51.92;100723.53;5035833;28;1322;-72
2021/07/29 11:38:34;;;;;;;;;;;;;;;18.55;52.93;100719.84;5037425;28;869;-74
2021/07/29 11:41:00;;;;;;;;;;;;;;;18.60;52.08;100723.81;5035030;28;1337;-72
2021/07/29 11:43:25;;;;;;;;;;;;;;;18.75;56.59;100718.72;5036340;28;1949;-73
2021/07/29 11:45:50;;;;;;;;;;;;;;;18.68;52.84;100715.75;5035159;28;1413;-73
2021/07/29 11:48:15;;;;;;;;;;;;;;;18.67;53.33;100724.00;5035492;28;1865;-74
2021/07/29 11:50:40;;;;;;;;;;;;;;;18.75;52.48;100732.19;5037048;28;1657;-72
2021/07/29 11:53:05;;;;;;;;;;;;;;;18.68;53.12;100721.16;5037071;28;1304;-72
2021/07/29 11:55:30;;;;;;;;;;;;;;;18.72;56.86;100738.75;5035573;28;1385;-72
2021/07/29 11:57:55;;;;;;;;;;;;;;;18.73;53.20;100735.06;5036262;28;1277;-73
2021/07/29 12:00:21;;;;;;;;;;;;;;;18.73;53.25;100734.22;5033102;28;1604;-73
2021/07/29 12:02:46;;;;;;;;;;;;;;;18.69;51.12;100749.00;5036740;28;1910;-72
2021/07/29 12:05:11;;;;;;;;;;;;;;;18.66;52.83;100739.38;5037041;28;1072;-72
2021/07/29 12:07:36;;;;;;;;;;;;;;;18.68;52.41;100734.66;5035681;28;1247;-72
2021/07/29 12:10:01;;;;;;;;;;;;;;;18.78;54.33;100737.31;5035922;28;811;-73
2021/07/29 12:12:26;;;;;;;;;;;;;;;18.81;53.62;100734.25;5035851;28;1394;-73
2021/07/29 12:14:51;;;;;;;;;;;;;;;18.84;54.05;100758.25;5037293;28;870;-72
2021/07/29 12:17:16;;;;;;;;;;;;;;;18.76;53.04;100743.84;5036808;28;1545;-73
2021/07/29 12:19:41;;;;;;;;;;;;;;;18.83;55.21;100747.59;5036539;28;1474;-73
2021/07/29 12:22:06;;;;;;;;;;;;;;;18.89;56.84;100758.66;5037128;28;1889;-73
2021/07/29 12:24:31;;;;;;;;;;;;;;;18.95;53.71;100747.25;5036913;28;973;-73
2021/07/29 12:26:57;;;;;;;;;;;;;;;18.83;55.82;100753.84;5036141;28;966;-73
2021/07/29 12:29:22;;;;;;;;;;;;;;;18.87;54.51;100752.56;5036853;28;823;-73
2021/07/29 12:31:47;;;;;;;;;;;;;;;18.98;55.26;100752.34;5036527;28;1052;-73
2021/07/29 12:34:12;;;;;;;;;;;;;;;18.98;54.93;100754.19;5036304;28;1677;-73
2021/07/29 12:36:37;;;;;;;;;;;;;;;18.99;54.66;100745.91;5036944;28;970;-73
2021/07/29 12:39:02;;;;;;;;;;;;;;;18.86;55.30;100745.47;5036673;28;1005;-74